Time;durP1;ratioP1;P1;durP2;ratioP2;P2;SDS_P1;SDS_P2;PMS_P1;PMS_P2;Temp;Humidity;BMP_temperature;BMP_pressure;BME280_temperature;BME280_humidity;BME280_pressure;Samples;Min_cycle;Max_cycle;Signal;HPM_P1;HPM_P2
2021/12/26 00:02:13;;;;;;;41.20;18.10;;;;;;;-9.17;100.00;97905.56;10495234;28;20079;-57
2021/12/26 00:07:18;;;;;;;54.37;18.53;;;;;;;-9.17;100.00;97905.56;10498009;28;20039;-57
2021/12/26 00:12:23;;;;;;;39.23;18.17;;;;;;;-9.15;100.00;97907.19;10502409;28;20063;-60
2021/12/26 00:17:26;;;;;;;37.10;18.70;;;;;;;-9.10;100.00;97886.16;10501028;28;20055;-58
2021/12/26 00:22:29;;;;;;;41.90;18.40;;;;;;;-9.15;100.00;97893.31;10505109;28;20050;-59
2021/12/26 00:27:33;;;;;;;44.57;18.63;;;;;;;-9.17;100.00;97898.56;10501127;28;20045;-57
2021/12/26 00:32:37;;;;;;;37.13;17.43;;;;;;;-9.24;100.00;97886.63;10500070;28;20086;-59
2021/12/26 00:37:43;;;;;;;41.63;18.93;;;;;;;-9.21;100.00;97883.06;10496289;28;20048;-60
2021/12/26 00:42:49;;;;;;;42.37;19.77;;;;;;;-9.20;100.00;97888.25;10503668;28;20094;-58
2021/12/26 00:47:52;;;;;;;121.13;19.37;;;;;;;-9.20;100.00;97890.88;10494534;28;20083;-59
2021/12/26 00:52:57;;;;;;;42.03;19.73;;;;;;;-9.22;100.00;97881.34;10507621;28;20469;-55
2021/12/26 00:58:06;;;;;;;45.53;19.87;;;;;;;-9.24;100.00;97876.19;10517150;28;20043;-56
2021/12/26 01:03:18;;;;;;;38.70;19.80;;;;;;;-9.25;100.00;97878.88;10521344;28;21498;-56
2021/12/26 01:08:29;;;;;;;53.57;19.43;;;;;;;-9.27;100.00;97870.25;10514568;28;20067;-57
2021/12/26 01:13:38;;;;;;;37.33;19.07;;;;;;;-9.28;100.00;97861.56;10510311;28;20063;-59
2021/12/26 01:19:07;;;;;;;41.63;19.90;;;;;;;-9.31;100.00;97852.06;10509693;28;20052;-55
2021/12/26 01:24:15;;;;;;;69.37;21.10;;;;;;;-9.34;100.00;97857.38;10507338;28;20078;-57
2021/12/26 01:29:20;;;;;;;62.87;20.40;;;;;;;-9.39;100.00;97859.31;10501130;28;20049;-59
2021/12/26 01:34:25;;;;;;;80.13;19.57;;;;;;;-9.46;100.00;97863.00;10497101;28;20055;-55
2021/12/26 01:39:51;;;;;;;78.27;21.10;;;;;;;-9.49;100.00;97869.19;10494653;28;20847;-60
2021/12/26 01:45:33;;;;;;;53.37;21.17;;;;;;;-9.54;100.00;97862.44;10482500;28;20154;-58
2021/12/26 01:50:41;;;;;;;75.10;18.57;;;;;;;-9.74;100.00;97876.97;10492658;28;20569;-57
2021/12/26 01:55:45;;;;;;;88.07;18.57;;;;;;;-9.73;100.00;97870.00;10484206;28;20083;-52
2021/12/26 02:00:56;;;;;;;54.00;17.67;;;;;;;-9.90;100.00;97866.19;10492297;28;20036;-54
2021/12/26 02:06:00;;;;;;;94.20;18.43;;;;;;;-9.98;100.00;97865.53;10492302;28;20056;-58
2021/12/26 02:11:10;;;;;;;30.87;16.67;;;;;;;-10.13;100.00;97862.53;10497110;28;20473;-60
2021/12/26 02:16:15;;;;;;;25.87;15.47;;;;;;;-10.23;100.00;97851.53;10520333;28;20077;-54
2021/12/26 02:21:32;;;;;;;25.77;14.50;;;;;;;-10.40;100.00;97843.38;10487754;28;20508;-55
2021/12/26 02:31:56;;;;;;;27.83;15.35;;;;;;;-10.61;100.00;97843.13;10491909;28;20135;-56
2021/12/26 02:37:00;;;;;;;27.90;15.50;;;;;;;-10.67;100.00;97843.31;10503441;28;20095;-54
2021/12/26 02:42:05;;;;;;;65.43;17.67;;;;;;;-10.74;100.00;97832.22;10507177;28;20071;-56
2021/12/26 02:47:08;;;;;;;139.10;20.90;;;;;;;-10.72;100.00;97840.84;10502041;28;20592;-53
2021/12/26 02:52:13;;;;;;;47.67;20.53;;;;;;;-10.79;100.00;97841.06;10503656;28;20049;-53
2021/12/26 02:57:16;;;;;;;60.73;19.27;;;;;;;-10.88;100.00;97843.03;10500439;28;20056;-53
2021/12/26 03:02:19;;;;;;;61.03;19.30;;;;;;;-10.87;100.00;97847.31;10503105;28;20130;-57
2021/12/26 03:07:24;;;;;;;145.47;23.17;;;;;;;-10.78;100.00;97850.56;10499617;28;20044;-54
2021/12/26 03:12:28;;;;;;;65.73;23.57;;;;;;;-10.80;100.00;97849.75;10494794;28;20098;-55
2021/12/26 03:17:31;;;;;;;416.13;23.23;;;;;;;-10.84;100.00;97857.66;10519869;28;20844;-61
2021/12/26 03:22:36;;;;;;;126.20;21.47;;;;;;;-10.93;100.00;97860.50;10500937;28;20131;-53
2021/12/26 03:27:39;;;;;;;68.33;19.27;;;;;;;-11.02;100.00;97856.41;10503268;28;20134;-54
2021/12/26 03:32:42;;;;;;;44.13;18.23;;;;;;;-11.08;100.00;97853.13;10505263;28;20052;-60
2021/12/26 03:37:47;;;;;;;32.83;18.63;;;;;;;-11.10;100.00;97862.69;10492469;28;20056;-55
2021/12/26 03:43:10;;;;;;;51.43;18.00;;;;;;;-11.22;100.00;97851.72;10500504;28;20048;-53
2021/12/26 03:48:18;;;;;;;34.40;18.33;;;;;;;-11.31;100.00;97847.66;10536529;27;20127;-56
2021/12/26 03:53:23;;;;;;;34.63;18.40;;;;;;;-11.46;100.00;97841.06;10503919;28;20032;-58
2021/12/26 03:58:26;;;;;;;30.00;16.77;;;;;;;-11.55;100.00;97841.31;10495246;28;20071;-60
2021/12/26 04:03:29;;;;;;;29.67;16.63;;;;;;;-11.59;100.00;97831.91;10485853;28;20045;-52
2021/12/26 04:08:39;;;;;;;25.63;15.27;;;;;;;-11.62;100.00;97842.38;10491754;28;20044;-53
2021/12/26 04:13:43;;;;;;;28.23;15.73;;;;;;;-11.64;100.00;97841.56;10506583;28;20048;-60
2021/12/26 04:18:47;;;;;;;24.17;13.83;;;;;;;-11.70;100.00;97836.53;10492063;28;20059;-58
2021/12/26 04:23:53;;;;;;;21.27;13.37;;;;;;;-11.82;100.00;97838.53;10505476;28;20435;-53
2021/12/26 04:28:56;;;;;;;23.37;14.10;;;;;;;-11.81;100.00;97828.97;10503877;28;20131;-53
2021/12/26 04:33:59;;;;;;;25.60;15.33;;;;;;;-11.84;100.00;97824.72;10508072;28;20105;-53
2021/12/26 04:39:05;;;;;;;24.80;14.90;;;;;;;-11.86;100.00;97831.69;10498273;28;21115;-61
2021/12/26 04:44:08;;;;;;;25.03;14.43;;;;;;;-11.94;100.00;97824.09;10504897;28;20133;-56
2021/12/26 04:49:35;;;;;;;24.77;14.73;;;;;;;-11.98;100.00;97813.84;10464688;28;20052;-62
2021/12/26 04:54:40;;;;;;;25.60;15.17;;;;;;;-12.07;100.00;97817.50;10495864;28;20141;-53
2021/12/26 04:59:43;;;;;;;25.37;14.20;;;;;;;-12.12;100.00;97825.41;10500835;28;20041;-55
2021/12/26 05:04:46;;;;;;;24.97;14.30;;;;;;;-12.21;100.00;97819.56;10536033;27;20048;-52
2021/12/26 05:09:51;;;;;;;26.43;14.67;;;;;;;-12.21;100.00;97828.22;10505670;28;20084;-57
2021/12/26 05:14:55;;;;;;;24.87;14.57;;;;;;;-12.22;100.00;97823.91;10516213;28;20047;-57
2021/12/26 05:20:00;;;;;;;29.37;16.20;;;;;;;-12.30;100.00;97820.66;10503846;28;20036;-57
2021/12/26 05:25:07;;;;;;;33.33;18.30;;;;;;;-12.32;100.00;97825.00;10498768;28;20052;-56
2021/12/26 05:30:14;;;;;;;28.57;16.87;;;;;;;-12.33;100.00;97825.91;10494731;28;20512;-55
2021/12/26 05:35:18;;;;;;;33.40;18.33;;;;;;;-12.40;100.00;97814.81;10490182;28;20052;-55
2021/12/26 05:40:24;;;;;;;35.43;19.00;;;;;;;-12.41;100.00;97826.06;10492428;28;20360;-56
2021/12/26 05:45:28;;;;;;;38.00;20.33;;;;;;;-12.40;100.00;97826.03;10502796;28;20075;-55
2021/12/26 05:51:01;;;;;;;35.63;19.33;;;;;;;-12.35;100.00;97827.66;10487747;28;20067;-52
2021/12/26 05:56:28;;;;;;;43.33;20.73;;;;;;;-12.28;100.00;97839.63;10496366;28;20435;-60
2021/12/26 06:01:32;;;;;;;43.27;21.27;;;;;;;-12.18;100.00;97833.34;10493182;28;20045;-52
2021/12/26 06:06:36;;;;;;;37.97;19.17;;;;;;;-12.05;100.00;97820.09;10490676;28;20512;-60
2021/12/26 06:11:41;;;;;;;31.83;17.60;;;;;;;-11.98;100.00;97826.81;10502294;28;20121;-53
2021/12/26 06:16:44;;;;;;;34.77;18.20;;;;;;;-11.93;100.00;97824.91;10534286;27;20530;-53
2021/12/26 06:22:17;;;;;;;29.80;16.87;;;;;;;-11.88;100.00;97833.47;10472096;28;20122;-58
2021/12/26 06:27:40;;;;;;;28.13;15.40;;;;;;;-11.86;100.00;97826.50;10506882;28;20048;-55
2021/12/26 06:33:04;;;;;;;34.90;17.90;;;;;;;-11.80;100.00;97821.13;10455978;28;20061;-55
2021/12/26 06:38:26;;;;;;;37.10;18.37;;;;;;;-11.73;100.00;97827.03;10498312;28;20079;-53
2021/12/26 06:43:48;;;;;;;33.83;17.80;;;;;;;-11.66;100.00;97827.75;10507914;28;20044;-61
2021/12/26 06:49:10;;;;;;;34.40;17.77;;;;;;;-11.64;100.00;97825.97;10493749;28;20048;-54
2021/12/26 06:54:13;;;;;;;33.60;17.53;;;;;;;-11.56;100.00;97813.63;10494411;28;20045;-57
2021/12/26 06:59:19;;;;;;;34.40;17.87;;;;;;;-11.48;100.00;97827.28;10502265;28;20040;-53
2021/12/26 07:04:22;;;;;;;33.03;18.03;;;;;;;-11.41;100.00;97819.31;10489914;28;20569;-51
2021/12/26 07:09:25;;;;;;;38.70;19.10;;;;;;;-11.32;100.00;97821.66;10495222;28;20037;-54
2021/12/26 07:14:32;;;;;;;38.77;20.33;;;;;;;-11.24;100.00;97830.13;10492291;28;20139;-51
2021/12/26 07:19:35;;;;;;;37.60;19.33;;;;;;;-11.17;100.00;97821.25;10494668;28;20093;-56
2021/12/26 07:24:48;;;;;;;36.80;18.37;;;;;;;-11.11;100.00;97820.25;10484566;28;20044;-61
2021/12/26 07:29:53;;;;;;;40.70;20.30;;;;;;;-11.01;100.00;97826.06;10503087;28;20051;-53
2021/12/26 07:34:57;;;;;;;33.37;18.03;;;;;;;-10.93;100.00;97829.28;10485919;28;20055;-52
2021/12/26 07:40:00;;;;;;;36.60;18.53;;;;;;;-10.85;100.00;97842.94;10502454;28;20049;-61
2021/12/26 07:45:05;;;;;;;33.03;16.70;;;;;;;-10.76;100.00;97833.19;10495939;28;20807;-54
2021/12/26 07:50:21;;;;;;;37.27;18.83;;;;;;;-10.64;100.00;97837.16;10495023;28;20386;-57
2021/12/26 07:55:43;;;;;;;34.30;17.67;;;;;;;-10.59;100.00;97828.31;10485389;28;20074;-60
2021/12/26 08:01:16;;;;;;;39.23;20.47;;;;;;;-10.34;100.00;97830.16;10454153;28;20079;-57
2021/12/26 08:06:35;;;;;;;39.83;20.02;;;;;;;-10.17;100.00;97836.63;10486488;28;20052;-57
2021/12/26 08:11:38;;;;;;;39.00;20.27;;;;;;;-10.03;100.00;97831.81;10486302;28;20134;-57
2021/12/26 08:16:43;;;;;;;36.63;19.37;;;;;;;-9.91;100.00;97831.44;10493917;28;20062;-59
2021/12/26 08:21:51;;;;;;;41.03;20.20;;;;;;;-9.72;100.00;97825.63;10501398;28;20120;-53
2021/12/26 08:26:54;;;;;;;41.40;21.27;;;;;;;-9.52;100.00;97826.72;10495463;28;20123;-53
2021/12/26 08:32:00;;;;;;;42.97;21.63;;;;;;;-9.37;100.00;97847.09;10500931;28;20054;-58
2021/12/26 08:37:04;;;;;;;38.37;20.13;;;;;;;-9.11;100.00;97828.81;10495876;28;20046;-56
2021/12/26 08:42:10;;;;;;;36.03;19.37;;;;;;;-8.84;100.00;97842.63;10490747;28;20557;-56
2021/12/26 08:47:15;;;;;;;38.17;21.07;;;;;;;-8.60;100.00;97837.44;10490481;28;20407;-58
2021/12/26 08:52:18;;;;;;;33.87;18.57;;;;;;;-8.34;100.00;97836.41;10491036;28;20045;-60
2021/12/26 08:57:21;;;;;;;33.57;18.17;;;;;;;-8.11;100.00;97838.16;10497050;28;20138;-56
2021/12/26 09:02:26;;;;;;;34.23;18.43;;;;;;;-7.94;100.00;97834.88;10495193;28;20040;-60
2021/12/26 09:07:30;;;;;;;32.27;18.43;;;;;;;-7.74;100.00;97836.72;10499508;28;20050;-60
2021/12/26 09:12:33;;;;;;;31.58;17.75;;;;;;;-7.54;100.00;97839.44;10501602;28;20539;-60
2021/12/26 09:17:37;;;;;;;32.67;17.13;;;;;;;-7.37;100.00;97830.88;10500986;28;20056;-61
2021/12/26 09:22:42;;;;;;;37.80;19.33;;;;;;;-7.24;100.00;97831.22;10497760;28;20044;-61
2021/12/26 09:27:45;;;;;;;34.55;16.88;;;;;;;-7.02;100.00;97837.22;10498119;28;20544;-61
2021/12/26 09:32:50;;;;;;;32.10;17.50;;;;;;;-6.79;100.00;97842.38;10490233;28;20147;-54
2021/12/26 09:37:54;;;;;;;34.33;17.60;;;;;;;-6.55;100.00;97837.81;10498064;28;20430;-55
2021/12/26 09:42:57;;;;;;;32.63;18.52;;;;;;;-6.35;100.00;97832.50;10499473;28;20054;-58
2021/12/26 09:48:01;;;;;;;29.77;16.50;;;;;;;-6.15;100.00;97824.66;10498630;28;20059;-57
2021/12/26 09:53:04;;;;;;;31.88;17.20;;;;;;;-5.93;100.00;97820.06;10527822;28;20337;-59
2021/12/26 09:58:07;;;;;;;27.98;16.35;;;;;;;-5.75;100.00;97804.38;10503922;28;20049;-55
2021/12/26 10:03:19;;;;;;;28.85;16.90;;;;;;;-5.55;100.00;97799.91;10486446;28;20081;-59
2021/12/26 10:08:24;;;;;;;31.33;17.77;;;;;;;-5.37;100.00;97791.13;10484110;28;20501;-53
2021/12/26 10:13:48;;;;;;;30.40;17.75;;;;;;;-5.17;100.00;97789.25;10493039;28;20040;-58
2021/12/26 10:18:53;;;;;;;30.40;18.30;;;;;;;-5.00;100.00;97791.84;10513261;28;20052;-58
2021/12/26 10:23:59;;;;;;;27.02;14.07;;;;;;;-4.81;100.00;97775.13;10498724;28;20134;-59
2021/12/26 10:29:21;;;;;;;23.88;13.23;;;;;;;-4.65;100.00;97773.41;10495089;28;20048;-58
2021/12/26 10:34:44;;;;;;;25.42;13.85;;;;;;;-4.47;100.00;97768.06;10499139;28;20094;-56
2021/12/26 10:40:05;;;;;;;21.88;12.57;;;;;;;-4.31;100.00;97757.56;10498712;28;20550;-61
2021/12/26 10:45:11;;;;;;;22.42;12.93;;;;;;;-4.15;100.00;97761.97;10519464;28;20151;-57
2021/12/26 10:50:19;;;;;;;22.77;12.95;;;;;;;-4.01;100.00;97748.91;10482868;28;20119;-56
2021/12/26 10:55:28;;;;;;;25.38;12.52;;;;;;;-3.86;100.00;97757.69;10494252;28;20424;-60
2021/12/26 11:00:36;;;;;;;20.15;12.65;;;;;;;-3.76;100.00;97756.22;10500616;28;20071;-59
2021/12/26 11:05:47;;;;;;;22.67;12.27;;;;;;;-3.62;100.00;97750.16;10498966;28;20083;-58
2021/12/26 11:10:53;;;;;;;21.67;13.07;;;;;;;-3.48;100.00;97746.75;10501971;28;20068;-57
2021/12/26 11:16:01;;;;;;;23.17;13.45;;;;;;;-3.35;100.00;97740.75;10501693;28;20080;-53
2021/12/26 11:21:08;;;;;;;21.77;12.65;;;;;;;-3.28;100.00;97742.91;10498220;28;20078;-58
2021/12/26 11:26:15;;;;;;;18.92;11.82;;;;;;;-3.18;100.00;97751.13;10497275;28;20654;-53
2021/12/26 11:31:20;;;;;;;20.13;12.05;;;;;;;-3.12;100.00;97742.81;10495578;28;20106;-55
2021/12/26 11:36:26;;;;;;;20.65;12.07;;;;;;;-3.03;100.00;97730.06;10494312;28;20186;-55
2021/12/26 11:41:52;;;;;;;20.42;11.85;;;;;;;-2.99;100.00;97737.69;10489453;28;20438;-55
2021/12/26 11:47:39;;;;;;;20.77;12.15;;;;;;;-2.94;100.00;97725.06;10503840;28;20055;-54
2021/12/26 11:53:23;;;;;;;21.67;13.02;;;;;;;-2.86;100.00;97729.88;10497829;28;20454;-52
2021/12/26 11:59:03;;;;;;;22.38;12.52;;;;;;;-2.85;100.00;97723.66;10503401;28;20051;-57
2021/12/26 12:04:18;;;;;;;22.15;11.93;;;;;;;-2.85;100.00;97718.38;10492885;28;20663;-58
2021/12/26 12:09:29;;;;;;;18.30;11.35;;;;;;;-2.76;100.00;97716.13;10497357;28;20067;-55
2021/12/26 12:14:54;;;;;;;21.63;12.18;;;;;;;-2.72;100.00;97705.31;10495235;28;20441;-54
2021/12/26 12:20:13;;;;;;;26.15;11.82;;;;;;;-2.66;100.00;97707.53;10490348;28;20080;-58
2021/12/26 12:25:41;;;;;;;20.27;11.73;;;;;;;-2.61;100.00;97711.69;10498021;28;20035;-60
2021/12/26 12:30:46;;;;;;;21.83;12.05;;;;;;;-2.58;100.00;97714.13;10503951;28;20147;-53
2021/12/26 12:35:53;;;;;;;20.30;11.15;;;;;;;-2.55;100.00;97706.00;10493990;28;20079;-57
2021/12/26 12:41:00;;;;;;;20.30;11.68;;;;;;;-2.57;100.00;97706.13;10502619;28;20143;-53
2021/12/26 12:46:09;;;;;;;30.50;16.42;;;;;;;-2.67;100.00;97712.91;10502559;28;20511;-54
2021/12/26 12:51:39;;;;;;;30.35;16.88;;;;;;;-2.86;100.00;97697.41;10504814;28;20044;-59
2021/12/26 12:56:55;;;;;;;32.80;18.23;;;;;;;-3.02;100.00;97694.88;10500849;28;20044;-55
2021/12/26 13:02:10;;;;;;;34.20;19.95;;;;;;;-3.10;100.00;97696.16;10508238;28;20040;-59
2021/12/26 13:07:18;;;;;;;31.45;16.52;;;;;;;-3.15;100.00;97695.63;10502172;28;20068;-53
2021/12/26 13:12:24;;;;;;;28.30;15.98;;;;;;;-3.15;100.00;97695.63;10502154;28;20484;-57
2021/12/26 13:17:33;;;;;;;29.33;15.75;;;;;;;-3.13;100.00;97695.50;10503764;28;20040;-56
2021/12/26 13:22:42;;;;;;;29.50;15.55;;;;;;;-3.17;100.00;97694.84;10490904;28;20044;-54
2021/12/26 13:27:48;;;;;;;32.55;18.17;;;;;;;-3.17;100.00;97691.34;10506510;28;20045;-57
2021/12/26 13:32:55;;;;;;;38.67;20.45;;;;;;;-3.24;100.00;97709.34;10483806;28;20048;-57
2021/12/26 13:38:08;;;;;;;36.58;19.88;;;;;;;-3.25;100.00;97697.94;10485905;28;20503;-53
2021/12/26 13:43:13;;;;;;;34.42;18.92;;;;;;;-3.26;100.00;97698.88;10484269;28;20280;-51
2021/12/26 13:48:27;;;;;;;35.63;19.75;;;;;;;-3.30;100.00;97686.00;10489512;28;20560;-60
2021/12/26 13:53:38;;;;;;;37.22;20.88;;;;;;;-3.34;100.00;97690.59;10504914;28;20501;-58
2021/12/26 13:58:43;;;;;;;40.65;22.55;;;;;;;-3.36;100.00;97691.66;10486590;28;20423;-57
2021/12/26 14:03:47;;;;;;;37.88;20.85;;;;;;;-3.37;100.00;97682.06;10495116;28;20169;-61
2021/12/26 14:08:55;;;;;;;38.97;21.45;;;;;;;-3.44;100.00;97679.75;10498359;28;20386;-56
2021/12/26 14:14:06;;;;;;;38.28;21.50;;;;;;;-3.46;100.00;97686.91;10500851;28;20056;-61
2021/12/26 14:19:11;;;;;;;38.47;22.55;;;;;;;-3.48;100.00;97693.22;10501003;28;20118;-52
2021/12/26 14:24:20;;;;;;;39.90;22.38;;;;;;;-3.52;100.00;97703.09;10501736;28;20447;-62
2021/12/26 14:29:25;;;;;;;40.53;22.83;;;;;;;-3.56;100.00;97697.16;10492493;28;20064;-58
2021/12/26 14:34:30;;;;;;;38.63;21.00;;;;;;;-3.56;100.00;97701.56;10508741;28;20397;-59
2021/12/26 14:39:35;;;;;;;34.55;19.58;;;;;;;-3.54;100.00;97693.59;10503446;28;20762;-53
2021/12/26 14:44:44;;;;;;;31.30;17.83;;;;;;;-3.55;100.00;97698.00;10501669;28;20123;-57
2021/12/26 14:49:50;;;;;;;33.75;19.15;;;;;;;-3.56;100.00;97707.69;10507235;28;20044;-53
2021/12/26 14:54:55;;;;;;;35.13;19.40;;;;;;;-3.54;100.00;97707.59;10499822;28;20064;-56
2021/12/26 15:00:01;;;;;;;30.20;18.10;;;;;;;-3.52;100.00;97704.84;10504890;28;20464;-51
2021/12/26 15:05:07;;;;;;;34.80;18.17;;;;;;;-3.50;100.00;97700.34;10528262;28;20067;-56
2021/12/26 15:10:12;;;;;;;27.77;16.27;;;;;;;-3.49;100.00;97713.44;10546077;28;20057;-55
2021/12/26 15:15:25;;;;;;;29.42;17.65;;;;;;;-3.48;100.00;97699.34;10501612;28;20056;-55
2021/12/26 15:20:35;;;;;;;33.88;19.50;;;;;;;-3.46;100.00;97705.34;10498607;28;20036;-56
2021/12/26 15:25:42;;;;;;;35.25;19.25;;;;;;;-3.47;100.00;97705.44;10496608;28;20139;-54
2021/12/26 15:30:59;;;;;;;31.52;19.58;;;;;;;-3.49;100.00;97700.28;10507617;28;20531;-56
2021/12/26 15:36:05;;;;;;;29.73;17.58;;;;;;;-3.49;100.00;97702.03;10499062;28;20139;-54
2021/12/26 15:41:11;;;;;;;30.00;17.50;;;;;;;-3.48;100.00;97693.22;10485258;28;20123;-58
2021/12/26 15:46:15;;;;;;;29.67;17.13;;;;;;;-3.47;100.00;97684.38;10506094;28;20483;-53
2021/12/26 15:51:20;;;;;;;27.88;15.93;;;;;;;-3.44;100.00;97684.19;10501792;28;20398;-56
2021/12/26 15:56:23;;;;;;;28.23;16.40;;;;;;;-3.38;100.00;97689.09;10489085;28;20078;-56
2021/12/26 16:01:28;;;;;;;27.20;16.45;;;;;;;-3.32;100.00;97696.63;10497293;28;20040;-58
2021/12/26 16:06:31;;;;;;;28.40;16.17;;;;;;;-3.26;100.00;97698.06;10499574;28;20040;-53
2021/12/26 16:11:36;;;;;;;29.30;16.52;;;;;;;-3.23;100.00;97687.31;10494650;28;20636;-56
2021/12/26 16:16:41;;;;;;;25.33;14.77;;;;;;;-3.19;100.00;97688.81;10493778;28;20044;-54
2021/12/26 16:21:44;;;;;;;25.95;15.82;;;;;;;-3.15;100.00;97687.72;10495491;28;20039;-62
2021/12/26 16:26:47;;;;;;;26.85;15.77;;;;;;;-3.08;100.00;97682.06;10486595;28;20119;-58
2021/12/26 16:31:55;;;;;;;26.83;14.38;;;;;;;-3.04;100.00;97671.22;10490529;28;20804;-56
2021/12/26 16:36:59;;;;;;;26.27;14.68;;;;;;;-3.00;100.00;97671.91;10514643;28;20060;-57
2021/12/26 16:42:02;;;;;;;27.30;15.40;;;;;;;-2.96;100.00;97662.84;10501866;28;20036;-58
2021/12/26 16:47:06;;;;;;;23.20;13.50;;;;;;;-2.92;100.00;97663.50;10504065;28;20420;-59
2021/12/26 16:52:10;;;;;;;21.00;13.13;;;;;;;-2.92;100.00;97664.38;10496841;28;20124;-51
2021/12/26 16:57:14;;;;;;;23.98;13.38;;;;;;;-2.88;100.00;97657.94;10497670;28;20129;-61
2021/12/26 17:02:19;;;;;;;21.52;12.75;;;;;;;-2.88;100.00;97655.31;10495873;28;20545;-55
2021/12/26 17:07:22;;;;;;;22.50;13.77;;;;;;;-2.84;100.00;97661.25;10497612;28;20500;-59
2021/12/26 17:12:26;;;;;;;21.38;12.75;;;;;;;-2.81;100.00;97655.75;10496143;28;20052;-56
2021/12/26 17:17:30;;;;;;;20.23;12.00;;;;;;;-2.80;100.00;97647.78;10491260;28;20479;-59
2021/12/26 17:22:33;;;;;;;20.35;11.98;;;;;;;-2.76;100.00;97650.22;10494265;28;20485;-59
2021/12/26 17:27:37;;;;;;;19.88;12.18;;;;;;;-2.74;100.00;97645.69;10489340;28;20111;-58
2021/12/26 17:32:41;;;;;;;22.67;12.20;;;;;;;-2.72;100.00;97644.66;10491945;28;20090;-56
2021/12/26 17:37:44;;;;;;;17.90;10.15;;;;;;;-2.69;100.00;97646.25;10488466;28;20421;-58
2021/12/26 17:42:47;;;;;;;20.98;10.57;;;;;;;-2.67;100.00;97641.72;10495278;28;20076;-57
2021/12/26 17:47:52;;;;;;;16.35;10.40;;;;;;;-2.66;100.00;97633.72;10482944;28;20142;-59
2021/12/26 17:52:55;;;;;;;12.30;7.78;;;;;;;-2.63;100.00;97632.66;10498923;28;20119;-53
2021/12/26 17:57:58;;;;;;;18.73;10.68;;;;;;;-2.62;100.00;97629.09;10515439;28;20048;-58
2021/12/26 18:03:02;;;;;;;13.10;7.68;;;;;;;-2.57;100.00;97634.06;10487348;28;20138;-56
2021/12/26 18:08:06;;;;;;;15.43;8.20;;;;;;;-2.56;100.00;97628.72;10507864;28;20071;-62
2021/12/26 18:13:13;;;;;;;13.77;8.00;;;;;;;-2.52;100.00;97629.34;10500708;28;20112;-62
2021/12/26 18:18:23;;;;;;;11.43;6.75;;;;;;;-2.51;100.00;97626.59;10503179;28;20044;-57
2021/12/26 18:23:27;;;;;;;12.82;6.38;;;;;;;-2.49;100.00;97629.16;10511238;28;20118;-61
2021/12/26 18:28:30;;;;;;;15.07;7.30;;;;;;;-2.49;100.00;97615.97;10504810;28;20132;-58
2021/12/26 18:33:34;;;;;;;44.08;22.25;;;;;;;-2.45;100.00;97613.97;10506992;28;20056;-61
2021/12/26 18:38:38;;;;;;;16.50;9.48;;;;;;;-2.46;100.00;97612.28;10504516;28;20462;-57
2021/12/26 18:43:41;;;;;;;13.23;6.90;;;;;;;-2.43;100.00;97614.72;10503714;28;20037;-60
2021/12/26 18:48:47;;;;;;;13.93;8.27;;;;;;;-2.41;100.00;97615.47;10497948;28;20040;-59
2021/12/26 18:53:50;;;;;;;17.15;9.93;;;;;;;-2.38;100.00;97620.53;10507606;28;20531;-60
2021/12/26 18:58:58;;;;;;;11.20;6.57;;;;;;;-2.34;100.00;97609.69;10497157;28;20119;-60
2021/12/26 19:04:05;;;;;;;11.30;6.40;;;;;;;-2.29;100.00;97613.81;10495930;28;20170;-61
2021/12/26 19:09:18;;;;;;;13.63;7.32;;;;;;;-2.26;100.00;97603.91;10492446;28;20127;-61
2021/12/26 19:14:21;;;;;;;10.48;6.70;;;;;;;-2.24;100.00;97606.47;10494428;28;20127;-60
2021/12/26 19:19:26;;;;;;;15.00;8.85;;;;;;;-2.22;100.00;97589.56;10501262;28;20044;-60
2021/12/26 19:24:29;;;;;;;12.77;7.38;;;;;;;-2.18;100.00;97590.22;10494215;28;20048;-61
2021/12/26 19:29:37;;;;;;;18.67;11.50;;;;;;;-2.15;100.00;97589.16;10505420;28;20097;-60
2021/12/26 19:34:44;;;;;;;21.17;14.65;;;;;;;-2.13;100.00;97588.13;10509015;28;20084;-60
2021/12/26 19:39:49;;;;;;;17.33;11.07;;;;;;;-2.10;100.00;97587.88;10506517;28;20051;-61
2021/12/26 19:44:52;;;;;;;13.75;8.35;;;;;;;-2.06;100.00;97588.56;10493735;28;20040;-61
2021/12/26 19:49:57;;;;;;;15.90;9.95;;;;;;;-2.04;100.00;97586.63;10541153;27;20048;-54
2021/12/26 19:55:01;;;;;;;24.23;17.52;;;;;;;-2.02;100.00;97582.97;10499008;28;20072;-59
2021/12/26 20:00:05;;;;;;;30.48;18.75;;;;;;;-1.99;100.00;97579.28;10494216;28;20480;-61
2021/12/26 20:05:10;;;;;;;13.15;9.00;;;;;;;-1.99;100.00;97581.03;10499227;28;20040;-59
2021/12/26 20:10:34;;;;;;;14.25;8.65;;;;;;;-2.00;100.00;97569.66;10496676;28;20044;-57
2021/12/26 20:15:37;;;;;;;21.73;13.32;;;;;;;-1.99;100.00;97566.06;10492999;28;20059;-59
2021/12/26 20:20:41;;;;;;;21.67;13.48;;;;;;;-1.96;100.00;97571.16;10489966;28;20037;-58
2021/12/26 20:25:45;;;;;;;19.65;12.35;;;;;;;-1.94;100.00;97571.88;10488890;28;20042;-57
2021/12/26 20:30:49;;;;;;;17.27;10.45;;;;;;;-1.90;100.00;97569.88;10494079;28;20060;-55
2021/12/26 20:35:55;;;;;;;15.02;9.30;;;;;;;-1.89;100.00;97572.41;10502700;28;20119;-56
2021/12/26 20:40:58;;;;;;;16.95;9.23;;;;;;;-1.88;100.00;97560.03;10495010;28;20053;-58
2021/12/26 20:46:01;;;;;;;12.70;8.32;;;;;;;-1.83;100.00;97557.13;10502767;28;20519;-61
2021/12/26 20:51:07;;;;;;;16.55;10.82;;;;;;;-1.82;100.00;97557.00;10498066;28;20076;-57
2021/12/26 20:56:12;;;;;;;17.58;9.38;;;;;;;-1.81;100.00;97549.91;10498999;28;20578;-58
2021/12/26 21:01:15;;;;;;;15.15;9.05;;;;;;;-1.81;100.00;97545.50;10501755;28;20119;-57
2021/12/26 21:06:20;;;;;;;19.45;8.90;;;;;;;-1.79;100.00;97537.47;10502137;28;20048;-56
2021/12/26 21:11:23;;;;;;;14.70;8.75;;;;;;;-1.79;100.00;97526.91;10507711;28;20040;-61
2021/12/26 21:16:26;;;;;;;13.40;9.52;;;;;;;-1.77;100.00;97525.88;10489391;28;20072;-59
2021/12/26 21:21:31;;;;;;;13.43;8.85;;;;;;;-1.77;100.00;97520.59;10503219;28;20059;-58
2021/12/26 21:26:34;;;;;;;19.08;9.55;;;;;;;-1.73;100.00;97524.69;10486256;28;20048;-60
2021/12/26 21:31:38;;;;;;;15.77;10.07;;;;;;;-1.72;100.00;97522.91;10495518;28;20113;-62
2021/12/26 21:36:42;;;;;;;18.60;10.40;;;;;;;-1.69;100.00;97522.66;10505168;28;20050;-58
2021/12/26 21:41:45;;;;;;;15.45;9.05;;;;;;;-1.66;100.00;97533.03;10488786;28;20079;-58
2021/12/26 21:46:50;;;;;;;20.85;9.95;;;;;;;-1.63;100.00;97527.53;10488549;28;20548;-57
2021/12/26 21:51:55;;;;;;;16.17;9.38;;;;;;;-1.61;100.00;97520.34;10502670;28;20321;-54
2021/12/26 21:57:03;;;;;;;17.02;9.20;;;;;;;-1.60;100.00;97522.03;10494634;28;20176;-59
2021/12/26 22:02:09;;;;;;;14.98;9.57;;;;;;;-1.57;100.00;97527.09;10492449;28;20114;-57
2021/12/26 22:07:13;;;;;;;15.15;9.80;;;;;;;-1.55;100.00;97525.19;10491899;28;20497;-63
2021/12/26 22:12:18;;;;;;;17.50;9.57;;;;;;;-1.51;100.00;97517.06;10489304;28;20078;-58
2021/12/26 22:17:22;;;;;;;17.00;10.30;;;;;;;-1.49;100.00;97517.81;10495438;28;20039;-54
2021/12/26 22:22:26;;;;;;;19.27;10.85;;;;;;;-1.47;100.00;97510.63;10494217;28;20094;-54
2021/12/26 22:27:30;;;;;;;15.93;10.15;;;;;;;-1.45;100.00;97508.69;10494630;28;20048;-57
2021/12/26 22:32:33;;;;;;;18.13;10.77;;;;;;;-1.42;100.00;97508.47;10497302;28;20461;-56
2021/12/26 22:37:38;;;;;;;16.52;10.43;;;;;;;-1.40;100.00;97503.94;10499693;28;20500;-58
2021/12/26 22:42:42;;;;;;;14.93;9.30;;;;;;;-1.40;100.00;97498.66;10498150;28;20044;-59
2021/12/26 22:47:45;;;;;;;17.25;9.82;;;;;;;-1.38;100.00;97483.53;10495770;28;20510;-59
2021/12/26 22:52:50;;;;;;;19.23;10.18;;;;;;;-1.38;100.00;97480.91;10501004;28;20560;-58
2021/12/26 22:57:53;;;;;;;16.23;10.70;;;;;;;-1.35;100.00;97482.47;10499935;28;20493;-57
2021/12/26 23:03:01;;;;;;;16.83;10.40;;;;;;;-1.34;100.00;97476.22;10507916;28;20408;-58